Hlavní strana
METAR-TAF:

METAR-TAF

Letiště :

Kirksville Regional Airport

Kirksville, Missouri, Spojené státy americké

zeměpisná šířka: 40-05-50N, zeměpisná délka: 092-32-36W, výška: 294 m

Aktuální stav počasí

Zpráva byla vytvořena před 54 minutami, v 08:55 UTC
Severovýchodní vítr 12 kt
Teplota 5°C
Vlhkost vzduchu 70%
Tlak 1010 hPa
Viditelnost: 16.1 km
Oblačno až skoro zataženo ve výšce 6500 ft
Zataženo ve výšce 8000 ft

METAR: KIRK 240855Z AUTO 04012KT 10SM BKN065 OVC080 05/00 A2983 RMK AO2 SLP107 T00500000 58019

Čas: 03:49 (09:49 UTC)


TAF: chybějící

Stav a předpovědi počasí z více než 4 000 letišť (zprávy METAR a TAF).

Červené a žluté tečky na mapě představují dostupné meteorologické stanice.

Když kurzor umístíte na tečku, zobrazí se název stanice.

Pak kliknutím zobrazíte stav a předpověď počasí.

Chcete-li změnit mapu, kliknutím na zelené tlačítko se znaménkem +mapu přiblížíte, kliknutím na zelené tlačítko se znaménkem – mapu oddálíte a kliknutím na zelené šipky přejdete na sousední mapy.


METAR-TAF: